Almirante Berria — EA4240 — position and weather

sailwx.info

Track history (hours):
 
Tides and Currents Weather Stations Pressure Air Temp Water Temp Dewpoint Dewpoint Depression Visibility Wind Speed Wind Dir Waves Ship Positions

Almirante Berria

Last reported at 2017-Nov-17 17:12 UTC. Time now 2017-Nov-21 21:15 UTC.
Position N 43°23' W 001°48'.

Length 26 m.

Type: Fishing. MMSI: 224096770.

Date/timePositionNaut miles runAvg speedWind from/ knotsBaromVisibWave heightAir tempDewpointWater temp
2017-Nov-17 17:12N 43°23' W 001°48'0 0.0
2017-Nov-17 17:00N 43°23' W 001°48'0 0.0
2017-Nov-17 16:30N 43°23' W 001°48'0 0.0
2017-Nov-17 16:00N 43°23' W 001°48'1 1.5
2017-Nov-17 15:30N 43°24' W 001°47'4 8.8
2017-Nov-17 15:00N 43°22' W 001°53'3 6.7
2017-Nov-17 14:30N 43°19' W 001°55'0 0.1
2017-Nov-17 14:00N 43°19' W 001°55'0 0.0
2017-Nov-17 12:38N 43°19' W 001°55'0 0.0
2017-Nov-17 12:30N 43°19' W 001°55'0 0.0
2017-Nov-17 12:01N 43°19' W 001°55'0 0.0
2017-Nov-17 11:30N 43°19' W 001°55'0 0.0
2017-Nov-17 11:00N 43°19' W 001°55'0 0.0
2017-Nov-17 10:30N 43°19' W 001°55'0 0.0
2017-Nov-17 10:00N 43°19' W 001°55'0 0.0
2017-Nov-17 09:30N 43°19' W 001°55'0 0.0
2017-Nov-17 09:01N 43°19' W 001°55'0 0.0
2017-Nov-17 08:30N 43°19' W 001°55'0 0.0
2017-Nov-16 16:42N 43°19' W 001°55'0 0.0
2017-Nov-16 16:30N 43°19' W 001°55'0 0.0
2017-Nov-16 16:00N 43°19' W 001°55'0 0.0
2017-Nov-16 15:30N 43°19' W 001°55'0 0.0
2017-Nov-16 15:00N 43°19' W 001°55'0 0.0
2017-Nov-16 14:29N 43°19' W 001°55'2 3.7
2017-Nov-16 14:00N 43°21' W 001°55'5 9.1
2017-Nov-16 13:30N 43°23' W 001°50'2 3.5
2017-Nov-16 13:00N 43°23' W 001°47'0 0.0
2017-Nov-16 12:30N 43°23' W 001°47'2 3.1
2017-Nov-16 12:00N 43°25' W 001°47'510.0
2017-Nov-16 11:30N 43°29' W 001°45'5 9.9
2017-Nov-16 11:00N 43°34' W 001°43'5 9.7
2017-Nov-16 10:30N 43°39' W 001°41'5 9.5
2017-Nov-16 10:00N 43°43' W 001°39'5 9.4
2017-Nov-16 09:30N 43°48' W 001°37'5 9.4
2017-Nov-16 09:00N 43°52' W 001°35'5 9.4
2017-Nov-16 08:30N 43°57' W 001°33'5 9.7
2017-Nov-16 08:00N 44°01' W 001°31'4 7.4
2017-Nov-16 07:30N 44°05' W 001°29'0 0.1
2017-Nov-16 07:00N 44°05' W 001°29'0 0.3
2017-Nov-16 06:30N 44°05' W 001°29'1 2.6
2017-Nov-16 06:00N 44°06' W 001°29'0 0.5
2017-Nov-16 05:30N 44°07' W 001°29'2 4.2
2017-Nov-16 05:00N 44°08' W 001°31'2 3.8
2017-Nov-16 04:30N 44°10' W 001°31'1 1.4
2017-Nov-16 04:00N 44°09' W 001°31'4 7.7
2017-Nov-16 03:30N 44°06' W 001°31'1 2.1
2017-Nov-16 03:00N 44°05' W 001°31'0 0.2
2017-Nov-16 02:30N 44°05' W 001°31'0 0.0
2017-Nov-16 02:00N 44°05' W 001°31'0 0.5
2017-Nov-16 01:10N 44°05' W 001°30'0 0.5
2017-Nov-16 01:00N 44°05' W 001°30'0 0.6
2017-Nov-16 00:30N 44°05' W 001°30'0 0.4
2017-Nov-16 00:00N 44°05' W 001°30'0 0.4
2017-Nov-15 23:30N 44°06' W 001°30'1 0.9
2017-Nov-15 21:55N 44°07' W 001°31'3 8.2
2017-Nov-15 21:30N 44°05' W 001°35'8 7.9
2017-Nov-15 20:28N 43°57' W 001°35'4 8.4
2017-Nov-15 20:00N 43°53' W 001°36'4 8.4
2017-Nov-15 19:29N 43°49' W 001°37'4 8.5
2017-Nov-15 19:00N 43°45' W 001°39'4 8.8
2017-Nov-15 18:30N 43°41' W 001°40'4 8.5
2017-Nov-15 18:00N 43°36' W 001°42'4 8.3
2017-Nov-15 17:30N 43°33' W 001°44'4 8.2
2017-Nov-15 17:00N 43°29' W 001°45'4 8.1
2017-Nov-15 16:30N 43°25' W 001°47'2 3.4
2017-Nov-15 16:00N 43°23' W 001°47'0 0.0
2017-Nov-15 08:30N 43°23' W 001°47'1 2.6
2017-Nov-15 08:00N 43°23' W 001°49'4 8.9
2017-Nov-15 07:30N 43°22' W 001°55'5 9.2
2017-Nov-15 07:00N 43°20' W 002°01'4 8.8
2017-Nov-15 06:30N 43°19' W 002°07'1 2.2
2017-Nov-15 06:00N 43°19' W 002°05'3 6.4
2017-Nov-15 05:30N 43°19' W 002°10'1 2.1
2017-Nov-15 05:00N 43°20' W 002°11'0 0.6
2017-Nov-15 04:30N 43°19' W 002°11'1 1.3
2017-Nov-15 04:00N 43°20' W 002°10'4 7.8
2017-Nov-15 03:30N 43°22' W 002°06'4 8.4
2017-Nov-15 03:00N 43°22' W 001°60'4 8.3
2017-Nov-15 02:30N 43°23' W 001°54'3 6.0
2017-Nov-15 02:00N 43°23' W 001°50'0 0.4
2017-Nov-15 01:30N 43°23' W 001°50'0 0.0
2017-Nov-15 01:00N 43°23' W 001°50'0 0.0
2017-Nov-15 00:30N 43°24' W 001°50'0 0.0
2017-Nov-15 00:00N 43°23' W 001°50'0 0.0
2017-Nov-14 23:30N 43°24' W 001°50'0 0.0
2017-Nov-14 23:00N 43°24' W 001°50'0 0.0
2017-Nov-14 22:30N 43°24' W 001°50'0 0.0
2017-Nov-14 22:00N 43°24' W 001°50'0 0.0
2017-Nov-14 21:30N 43°24' W 001°50'0 0.0
2017-Nov-14 21:00N 43°24' W 001°50'0 0.0
2017-Nov-14 20:30N 43°24' W 001°50'0 0.0
2017-Nov-14 20:00N 43°24' W 001°50'0 0.0
2017-Nov-14 19:30N 43°24' W 001°50'0 0.0
2017-Nov-14 19:00N 43°24' W 001°50'0 0.0
2017-Nov-14 18:30N 43°24' W 001°50'0 0.1
2017-Nov-14 18:00N 43°24' W 001°50'2 3.5
2017-Nov-14 17:30N 43°24' W 001°48'1 2.1
2017-Nov-14 17:00N 43°23' W 001°47'  
Track history (hours):
 
Tides and Currents Weather Stations Pressure Air Temp Water Temp Dewpoint Dewpoint Depression Visibility Wind Speed Wind Dir Waves Ship Positions

Almirante Berria

Last reported at 2017-Nov-17 17:12 UTC. Time now 2017-Nov-21 21:15 UTC.
Position N 43°23' W 001°48'.

Length 26 m.

Type: Fishing. MMSI: 224096770.

Date/timePositionNaut miles runAvg speedWind from/ knotsBaromVisibWave heightAir tempDewpointWater temp
2017-Nov-17 17:12N 43°23' W 001°48'0 0.0
2017-Nov-17 17:00N 43°23' W 001°48'0 0.0
2017-Nov-17 16:30N 43°23' W 001°48'0 0.0
2017-Nov-17 16:00N 43°23' W 001°48'1 1.5
2017-Nov-17 15:30N 43°24' W 001°47'4 8.8
2017-Nov-17 15:00N 43°22' W 001°53'3 6.7
2017-Nov-17 14:30N 43°19' W 001°55'0 0.1
2017-Nov-17 14:00N 43°19' W 001°55'0 0.0
2017-Nov-17 12:38N 43°19' W 001°55'0 0.0
2017-Nov-17 12:30N 43°19' W 001°55'0 0.0
2017-Nov-17 12:01N 43°19' W 001°55'0 0.0
2017-Nov-17 11:30N 43°19' W 001°55'0 0.0
2017-Nov-17 11:00N 43°19' W 001°55'0 0.0
2017-Nov-17 10:30N 43°19' W 001°55'0 0.0
2017-Nov-17 10:00N 43°19' W 001°55'0 0.0
2017-Nov-17 09:30N 43°19' W 001°55'0 0.0
2017-Nov-17 09:01N 43°19' W 001°55'0 0.0
2017-Nov-17 08:30N 43°19' W 001°55'0 0.0
2017-Nov-16 16:42N 43°19' W 001°55'0 0.0
2017-Nov-16 16:30N 43°19' W 001°55'0 0.0
2017-Nov-16 16:00N 43°19' W 001°55'0 0.0
2017-Nov-16 15:30N 43°19' W 001°55'0 0.0
2017-Nov-16 15:00N 43°19' W 001°55'0 0.0
2017-Nov-16 14:29N 43°19' W 001°55'2 3.7
2017-Nov-16 14:00N 43°21' W 001°55'5 9.1
2017-Nov-16 13:30N 43°23' W 001°50'2 3.5
2017-Nov-16 13:00N 43°23' W 001°47'0 0.0
2017-Nov-16 12:30N 43°23' W 001°47'2 3.1
2017-Nov-16 12:00N 43°25' W 001°47'510.0
2017-Nov-16 11:30N 43°29' W 001°45'5 9.9
2017-Nov-16 11:00N 43°34' W 001°43'5 9.7
2017-Nov-16 10:30N 43°39' W 001°41'5 9.5
2017-Nov-16 10:00N 43°43' W 001°39'5 9.4
2017-Nov-16 09:30N 43°48' W 001°37'5 9.4
2017-Nov-16 09:00N 43°52' W 001°35'5 9.4
2017-Nov-16 08:30N 43°57' W 001°33'5 9.7
2017-Nov-16 08:00N 44°01' W 001°31'4 7.4
2017-Nov-16 07:30N 44°05' W 001°29'0 0.1
2017-Nov-16 07:00N 44°05' W 001°29'0 0.3
2017-Nov-16 06:30N 44°05' W 001°29'1 2.6
2017-Nov-16 06:00N 44°06' W 001°29'0 0.5
2017-Nov-16 05:30N 44°07' W 001°29'2 4.2
2017-Nov-16 05:00N 44°08' W 001°31'2 3.8
2017-Nov-16 04:30N 44°10' W 001°31'1 1.4
2017-Nov-16 04:00N 44°09' W 001°31'4 7.7
2017-Nov-16 03:30N 44°06' W 001°31'1 2.1
2017-Nov-16 03:00N 44°05' W 001°31'0 0.2
2017-Nov-16 02:30N 44°05' W 001°31'0 0.0
2017-Nov-16 02:00N 44°05' W 001°31'0 0.5
2017-Nov-16 01:10N 44°05' W 001°30'0 0.5
2017-Nov-16 01:00N 44°05' W 001°30'0 0.6
2017-Nov-16 00:30N 44°05' W 001°30'0 0.4
2017-Nov-16 00:00N 44°05' W 001°30'0 0.4
2017-Nov-15 23:30N 44°06' W 001°30'1 0.9
2017-Nov-15 21:55N 44°07' W 001°31'3 8.2
2017-Nov-15 21:30N 44°05' W 001°35'8 7.9
2017-Nov-15 20:28N 43°57' W 001°35'4 8.4
2017-Nov-15 20:00N 43°53' W 001°36'4 8.4
2017-Nov-15 19:29N 43°49' W 001°37'4 8.5
2017-Nov-15 19:00N 43°45' W 001°39'4 8.8
2017-Nov-15 18:30N 43°41' W 001°40'4 8.5
2017-Nov-15 18:00N 43°36' W 001°42'4 8.3
2017-Nov-15 17:30N 43°33' W 001°44'4 8.2
2017-Nov-15 17:00N 43°29' W 001°45'4 8.1
2017-Nov-15 16:30N 43°25' W 001°47'2 3.4
2017-Nov-15 16:00N 43°23' W 001°47'0 0.0
2017-Nov-15 08:30N 43°23' W 001°47'1 2.6
2017-Nov-15 08:00N 43°23' W 001°49'4 8.9
2017-Nov-15 07:30N 43°22' W 001°55'5 9.2
2017-Nov-15 07:00N 43°20' W 002°01'4 8.8
2017-Nov-15 06:30N 43°19' W 002°07'1 2.2
2017-Nov-15 06:00N 43°19' W 002°05'3 6.4
2017-Nov-15 05:30N 43°19' W 002°10'1 2.1
2017-Nov-15 05:00N 43°20' W 002°11'0 0.6
2017-Nov-15 04:30N 43°19' W 002°11'1 1.3
2017-Nov-15 04:00N 43°20' W 002°10'4 7.8
2017-Nov-15 03:30N 43°22' W 002°06'4 8.4
2017-Nov-15 03:00N 43°22' W 001°60'4 8.3
2017-Nov-15 02:30N 43°23' W 001°54'3 6.0
2017-Nov-15 02:00N 43°23' W 001°50'0 0.4
2017-Nov-15 01:30N 43°23' W 001°50'0 0.0
2017-Nov-15 01:00N 43°23' W 001°50'0 0.0
2017-Nov-15 00:30N 43°24' W 001°50'0 0.0
2017-Nov-15 00:00N 43°23' W 001°50'0 0.0
2017-Nov-14 23:30N 43°24' W 001°50'0 0.0
2017-Nov-14 23:00N 43°24' W 001°50'0 0.0
2017-Nov-14 22:30N 43°24' W 001°50'0 0.0
2017-Nov-14 22:00N 43°24' W 001°50'0 0.0
2017-Nov-14 21:30N 43°24' W 001°50'0 0.0
2017-Nov-14 21:00N 43°24' W 001°50'0 0.0
2017-Nov-14 20:30N 43°24' W 001°50'0 0.0
2017-Nov-14 20:00N 43°24' W 001°50'0 0.0
2017-Nov-14 19:30N 43°24' W 001°50'0 0.0
2017-Nov-14 19:00N 43°24' W 001°50'0 0.0
2017-Nov-14 18:30N 43°24' W 001°50'0 0.1
2017-Nov-14 18:00N 43°24' W 001°50'2 3.5
2017-Nov-14 17:30N 43°24' W 001°48'1 2.1
2017-Nov-14 17:00N 43°23' W 001°47'  

Dump ship's entire track history